sensor_id;sensor_type;location;lat;lon;timestamp;temperature;humidity
21698;DHT22;11010;49.548;11.926;2023-03-23T00:01:22;10.20;99.90
21698;DHT22;11010;49.548;11.926;2023-03-23T00:03:52;10.00;99.90
21698;DHT22;11010;49.548;11.926;2023-03-23T00:06:19;10.10;99.90
21698;DHT22;11010;49.548;11.926;2023-03-23T00:08:47;10.10;99.90
21698;DHT22;11010;49.548;11.926;2023-03-23T00:11:19;10.20;99.90
21698;DHT22;11010;49.548;11.926;2023-03-23T00:13:48;10.20;99.90
21698;DHT22;11010;49.548;11.926;2023-03-23T00:16:19;10.10;99.90
21698;DHT22;11010;49.548;11.926;2023-03-23T00:18:50;10.20;99.90
21698;DHT22;11010;49.548;11.926;2023-03-23T00:21:20;10.20;99.90
21698;DHT22;11010;49.548;11.926;2023-03-23T00:23:51;10.10;99.90
21698;DHT22;11010;49.548;11.926;2023-03-23T00:26:18;10.10;99.90
21698;DHT22;11010;49.548;11.926;2023-03-23T00:28:44;10.10;99.90
21698;DHT22;11010;49.548;11.926;2023-03-23T00:31:12;9.80;99.90
21698;DHT22;11010;49.548;11.926;2023-03-23T00:33:39;10.00;99.90
21698;DHT22;11010;49.548;11.926;2023-03-23T00:36:11;9.80;99.90
21698;DHT22;11010;49.548;11.926;2023-03-23T00:38:39;10.00;99.90
21698;DHT22;11010;49.548;11.926;2023-03-23T00:41:08;10.00;99.90
21698;DHT22;11010;49.548;11.926;2023-03-23T00:43:37;10.00;99.90
21698;DHT22;11010;49.548;11.926;2023-03-23T00:46:03;9.70;99.90
21698;DHT22;11010;49.548;11.926;2023-03-23T00:48:35;9.50;99.90
21698;DHT22;11010;49.548;11.926;2023-03-23T00:51:02;9.80;99.90
21698;DHT22;11010;49.548;11.926;2023-03-23T00:53:32;9.80;99.90
21698;DHT22;11010;49.548;11.926;2023-03-23T00:55:58;9.90;99.90
21698;DHT22;11010;49.548;11.926;2023-03-23T00:58:25;9.90;99.90
21698;DHT22;11010;49.548;11.926;2023-03-23T01:00:51;10.00;99.90
21698;DHT22;11010;49.548;11.926;2023-03-23T01:03:17;9.90;99.90
21698;DHT22;11010;49.548;11.926;2023-03-23T01:05:44;9.80;99.90
21698;DHT22;11010;49.548;11.926;2023-03-23T01:08:14;9.90;99.90
21698;DHT22;11010;49.548;11.926;2023-03-23T01:10:40;9.90;99.90
21698;DHT22;11010;49.548;11.926;2023-03-23T01:13:07;9.80;99.90
21698;DHT22;11010;49.548;11.926;2023-03-23T01:15:33;9.90;99.90
21698;DHT22;11010;49.548;11.926;2023-03-23T01:17:59;9.80;99.90
21698;DHT22;11010;49.548;11.926;2023-03-23T01:20:26;9.80;99.90
21698;DHT22;11010;49.548;11.926;2023-03-23T01:22:58;9.80;99.90
21698;DHT22;11010;49.548;11.926;2023-03-23T01:25:28;9.80;99.90
21698;DHT22;11010;49.548;11.926;2023-03-23T01:27:55;9.80;99.90
21698;DHT22;11010;49.548;11.926;2023-03-23T01:30:22;9.80;99.90
21698;DHT22;11010;49.548;11.926;2023-03-23T01:32:49;9.70;99.90
21698;DHT22;11010;49.548;11.926;2023-03-23T01:35:16;9.70;99.90
21698;DHT22;11010;49.548;11.926;2023-03-23T01:37:42;9.70;99.90
21698;DHT22;11010;49.548;11.926;2023-03-23T01:40:09;9.80;99.90
21698;DHT22;11010;49.548;11.926;2023-03-23T01:42:37;9.80;99.90
21698;DHT22;11010;49.548;11.926;2023-03-23T01:45:22;9.80;99.90
21698;DHT22;11010;49.548;11.926;2023-03-23T01:47:54;9.70;99.90
21698;DHT22;11010;49.548;11.926;2023-03-23T01:50:24;9.50;99.90
21698;DHT22;11010;49.548;11.926;2023-03-23T01:52:53;9.40;99.90
21698;DHT22;11010;49.548;11.926;2023-03-23T01:55:21;9.40;99.90
21698;DHT22;11010;49.548;11.926;2023-03-23T01:57:49;9.50;99.90
21698;DHT22;11010;49.548;11.926;2023-03-23T02:00:16;9.40;99.90
21698;DHT22;11010;49.548;11.926;2023-03-23T02:02:51;9.40;99.90
21698;DHT22;11010;49.548;11.926;2023-03-23T02:05:30;9.20;99.90
21698;DHT22;11010;49.548;11.926;2023-03-23T02:08:05;9.40;99.90
21698;DHT22;11010;49.548;11.926;2023-03-23T02:10:36;9.20;99.90
21698;DHT22;11010;49.548;11.926;2023-03-23T02:13:04;9.20;99.90
21698;DHT22;11010;49.548;11.926;2023-03-23T02:15:48;9.40;99.90
21698;DHT22;11010;49.548;11.926;2023-03-23T02:18:28;9.20;99.90
21698;DHT22;11010;49.548;11.926;2023-03-23T02:36:56;9.70;99.90
21698;DHT22;11010;49.548;11.926;2023-03-23T02:39:28;9.90;99.90
21698;DHT22;11010;49.548;11.926;2023-03-23T02:42:00;9.80;99.90
21698;DHT22;11010;49.548;11.926;2023-03-23T02:44:29;9.90;99.90
21698;DHT22;11010;49.548;11.926;2023-03-23T02:46:58;9.70;99.90
21698;DHT22;11010;49.548;11.926;2023-03-23T02:49:27;9.60;99.90
21698;DHT22;11010;49.548;11.926;2023-03-23T02:51:58;9.70;99.90
21698;DHT22;11010;49.548;11.926;2023-03-23T02:54:26;9.60;99.90
21698;DHT22;11010;49.548;11.926;2023-03-23T02:56:54;9.60;99.90
21698;DHT22;11010;49.548;11.926;2023-03-23T02:59:26;9.70;99.90
21698;DHT22;11010;49.548;11.926;2023-03-23T03:02:14;9.70;99.90
21698;DHT22;11010;49.548;11.926;2023-03-23T03:04:47;9.80;99.90
21698;DHT22;11010;49.548;11.926;2023-03-23T03:15:36;9.80;99.90
21698;DHT22;11010;49.548;11.926;2023-03-23T03:18:19;9.90;99.90
21698;DHT22;11010;49.548;11.926;2023-03-23T03:20:54;9.90;99.90
21698;DHT22;11010;49.548;11.926;2023-03-23T03:23:23;10.00;99.90
21698;DHT22;11010;49.548;11.926;2023-03-23T03:25:52;10.00;99.90
21698;DHT22;11010;49.548;11.926;2023-03-23T03:28:33;10.10;99.90
21698;DHT22;11010;49.548;11.926;2023-03-23T03:31:02;10.00;99.90
21698;DHT22;11010;49.548;11.926;2023-03-23T03:33:30;10.10;99.90
21698;DHT22;11010;49.548;11.926;2023-03-23T03:36:03;10.10;99.90
21698;DHT22;11010;49.548;11.926;2023-03-23T03:38:29;10.10;99.90
21698;DHT22;11010;49.548;11.926;2023-03-23T03:41:06;10.20;99.90
21698;DHT22;11010;49.548;11.926;2023-03-23T03:43:31;10.20;99.90
21698;DHT22;11010;49.548;11.926;2023-03-23T03:45:57;10.30;99.90
21698;DHT22;11010;49.548;11.926;2023-03-23T03:48:23;10.30;99.90
21698;DHT22;11010;49.548;11.926;2023-03-23T03:50:49;10.30;99.90
21698;DHT22;11010;49.548;11.926;2023-03-23T03:53:18;10.30;99.90
21698;DHT22;11010;49.548;11.926;2023-03-23T03:55:44;10.30;99.90
21698;DHT22;11010;49.548;11.926;2023-03-23T03:58:12;10.30;99.90
21698;DHT22;11010;49.548;11.926;2023-03-23T04:01:03;10.20;99.90
21698;DHT22;11010;49.548;11.926;2023-03-23T04:03:34;10.30;99.90
21698;DHT22;11010;49.548;11.926;2023-03-23T04:06:08;10.20;99.90
21698;DHT22;11010;49.548;11.926;2023-03-23T04:08:36;10.10;99.90
21698;DHT22;11010;49.548;11.926;2023-03-23T04:11:04;10.20;99.90
21698;DHT22;11010;49.548;11.926;2023-03-23T04:13:31;10.20;99.90
21698;DHT22;11010;49.548;11.926;2023-03-23T04:16:07;10.10;99.90
21698;DHT22;11010;49.548;11.926;2023-03-23T04:18:34;10.00;99.90
21698;DHT22;11010;49.548;11.926;2023-03-23T04:21:02;10.10;99.90
21698;DHT22;11010;49.548;11.926;2023-03-23T04:23:29;10.00;99.90
21698;DHT22;11010;49.548;11.926;2023-03-23T04:26:02;9.90;99.90
21698;DHT22;11010;49.548;11.926;2023-03-23T04:28:34;10.00;99.90
21698;DHT22;11010;49.548;11.926;2023-03-23T04:31:19;10.00;99.90
21698;DHT22;11010;49.548;11.926;2023-03-23T04:33:53;10.00;99.90
21698;DHT22;11010;49.548;11.926;2023-03-23T04:36:22;9.90;99.90
21698;DHT22;11010;49.548;11.926;2023-03-23T04:39:02;10.00;99.90
21698;DHT22;11010;49.548;11.926;2023-03-23T04:50:01;9.90;99.90
21698;DHT22;11010;49.548;11.926;2023-03-23T04:52:27;10.00;99.90
21698;DHT22;11010;49.548;11.926;2023-03-23T04:54:59;10.00;99.90
21698;DHT22;11010;49.548;11.926;2023-03-23T04:57:27;10.00;99.90
21698;DHT22;11010;49.548;11.926;2023-03-23T05:00:20;10.00;99.90
21698;DHT22;11010;49.548;11.926;2023-03-23T05:02:53;10.00;99.90
21698;DHT22;11010;49.548;11.926;2023-03-23T05:05:23;9.80;99.90
21698;DHT22;11010;49.548;11.926;2023-03-23T05:07:53;9.80;99.90
21698;DHT22;11010;49.548;11.926;2023-03-23T05:10:23;9.70;99.90
21698;DHT22;11010;49.548;11.926;2023-03-23T05:12:53;9.70;99.90
21698;DHT22;11010;49.548;11.926;2023-03-23T05:15:19;9.90;99.90
21698;DHT22;11010;49.548;11.926;2023-03-23T05:17:46;9.90;99.90
21698;DHT22;11010;49.548;11.926;2023-03-23T05:20:16;9.90;99.90
21698;DHT22;11010;49.548;11.926;2023-03-23T05:23:02;9.90;99.90
21698;DHT22;11010;49.548;11.926;2023-03-23T05:25:33;9.80;99.90
21698;DHT22;11010;49.548;11.926;2023-03-23T05:28:08;9.80;99.90
21698;DHT22;11010;49.548;11.926;2023-03-23T05:30:46;9.80;99.90
21698;DHT22;11010;49.548;11.926;2023-03-23T05:33:15;9.80;99.90
21698;DHT22;11010;49.548;11.926;2023-03-23T05:35:46;9.90;99.90
21698;DHT22;11010;49.548;11.926;2023-03-23T05:38:15;10.00;99.90
21698;DHT22;11010;49.548;11.926;2023-03-23T05:40:42;10.00;99.90
21698;DHT22;11010;49.548;11.926;2023-03-23T05:43:14;10.00;99.90
21698;DHT22;11010;49.548;11.926;2023-03-23T05:46:00;10.00;99.90
21698;DHT22;11010;49.548;11.926;2023-03-23T05:48:27;9.90;99.90
21698;DHT22;11010;49.548;11.926;2023-03-23T05:50:53;9.80;99.90
21698;DHT22;11010;49.548;11.926;2023-03-23T05:53:22;9.90;99.90
21698;DHT22;11010;49.548;11.926;2023-03-23T05:55:49;9.80;99.90
21698;DHT22;11010;49.548;11.926;2023-03-23T05:58:23;9.90;99.90
21698;DHT22;11010;49.548;11.926;2023-03-23T06:00:50;10.00;99.90
21698;DHT22;11010;49.548;11.926;2023-03-23T06:03:21;9.90;99.90
21698;DHT22;11010;49.548;11.926;2023-03-23T06:05:58;10.00;99.90
21698;DHT22;11010;49.548;11.926;2023-03-23T06:08:32;10.00;99.90
21698;DHT22;11010;49.548;11.926;2023-03-23T06:10:58;10.10;99.90
21698;DHT22;11010;49.548;11.926;2023-03-23T06:13:23;10.20;99.90
21698;DHT22;11010;49.548;11.926;2023-03-23T06:15:57;10.20;99.90
21698;DHT22;11010;49.548;11.926;2023-03-23T06:18:41;10.20;99.90
21698;DHT22;11010;49.548;11.926;2023-03-23T06:21:28;10.20;99.90
21698;DHT22;11010;49.548;11.926;2023-03-23T06:24:15;10.20;99.90
21698;DHT22;11010;49.548;11.926;2023-03-23T06:26:41;10.20;99.90
21698;DHT22;11010;49.548;11.926;2023-03-23T06:29:12;10.20;99.90
21698;DHT22;11010;49.548;11.926;2023-03-23T06:31:49;10.30;99.90
21698;DHT22;11010;49.548;11.926;2023-03-23T06:34:18;10.30;99.90
21698;DHT22;11010;49.548;11.926;2023-03-23T06:36:50;10.30;99.90
21698;DHT22;11010;49.548;11.926;2023-03-23T06:39:24;10.40;99.90
21698;DHT22;11010;49.548;11.926;2023-03-23T06:42:11;10.40;99.90
21698;DHT22;11010;49.548;11.926;2023-03-23T06:44:42;10.40;99.90
21698;DHT22;11010;49.548;11.926;2023-03-23T06:47:11;10.40;99.90
21698;DHT22;11010;49.548;11.926;2023-03-23T06:49:44;10.40;99.90
21698;DHT22;11010;49.548;11.926;2023-03-23T06:52:18;10.50;99.90
21698;DHT22;11010;49.548;11.926;2023-03-23T06:54:44;10.50;99.90
21698;DHT22;11010;49.548;11.926;2023-03-23T06:57:12;10.50;99.90
21698;DHT22;11010;49.548;11.926;2023-03-23T06:59:38;10.60;99.90
21698;DHT22;11010;49.548;11.926;2023-03-23T07:02:05;10.70;99.90
21698;DHT22;11010;49.548;11.926;2023-03-23T07:04:32;10.80;99.90
21698;DHT22;11010;49.548;11.926;2023-03-23T07:07:13;10.90;99.90
21698;DHT22;11010;49.548;11.926;2023-03-23T07:10:10;10.90;99.90
21698;DHT22;11010;49.548;11.926;2023-03-23T07:12:38;11.00;99.90
21698;DHT22;11010;49.548;11.926;2023-03-23T07:15:06;11.10;99.90
21698;DHT22;11010;49.548;11.926;2023-03-23T07:17:37;11.20;99.90
21698;DHT22;11010;49.548;11.926;2023-03-23T07:20:22;11.20;99.90
21698;DHT22;11010;49.548;11.926;2023-03-23T07:22:48;11.20;99.90
21698;DHT22;11010;49.548;11.926;2023-03-23T07:25:35;11.30;99.90
21698;DHT22;11010;49.548;11.926;2023-03-23T07:28:02;11.30;99.90
21698;DHT22;11010;49.548;11.926;2023-03-23T07:30:29;11.40;99.90
21698;DHT22;11010;49.548;11.926;2023-03-23T07:32:56;11.50;99.90
21698;DHT22;11010;49.548;11.926;2023-03-23T07:35:24;11.60;99.90
21698;DHT22;11010;49.548;11.926;2023-03-23T07:37:56;11.60;99.90
21698;DHT22;11010;49.548;11.926;2023-03-23T07:40:22;11.70;99.90
21698;DHT22;11010;49.548;11.926;2023-03-23T07:42:53;11.70;99.90
21698;DHT22;11010;49.548;11.926;2023-03-23T07:45:30;11.70;99.90
21698;DHT22;11010;49.548;11.926;2023-03-23T07:47:57;11.90;99.90
21698;DHT22;11010;49.548;11.926;2023-03-23T07:50:24;11.90;99.90
21698;DHT22;11010;49.548;11.926;2023-03-23T07:52:57;12.00;99.90
21698;DHT22;11010;49.548;11.926;2023-03-23T07:55:25;12.10;99.90
21698;DHT22;11010;49.548;11.926;2023-03-23T07:58:18;12.20;99.90
21698;DHT22;11010;49.548;11.926;2023-03-23T08:00:52;12.20;99.90
21698;DHT22;11010;49.548;11.926;2023-03-23T08:03:19;12.20;99.90
21698;DHT22;11010;49.548;11.926;2023-03-23T08:06:11;12.30;99.90
21698;DHT22;11010;49.548;11.926;2023-03-23T08:08:43;12.40;99.90
21698;DHT22;11010;49.548;11.926;2023-03-23T08:11:29;12.50;99.90
21698;DHT22;11010;49.548;11.926;2023-03-23T08:14:15;12.50;99.90
21698;DHT22;11010;49.548;11.926;2023-03-23T08:17:01;12.50;99.90
21698;DHT22;11010;49.548;11.926;2023-03-23T08:20:03;12.60;99.90
21698;DHT22;11010;49.548;11.926;2023-03-23T08:23:10;12.60;99.90
21698;DHT22;11010;49.548;11.926;2023-03-23T08:25:36;12.70;99.90
21698;DHT22;11010;49.548;11.926;2023-03-23T08:28:32;12.70;99.90
21698;DHT22;11010;49.548;11.926;2023-03-23T08:31:16;12.70;99.90
21698;DHT22;11010;49.548;11.926;2023-03-23T08:34:02;12.80;99.90
21698;DHT22;11010;49.548;11.926;2023-03-23T08:37:03;12.80;99.90
21698;DHT22;11010;49.548;11.926;2023-03-23T08:39:54;12.90;99.90
21698;DHT22;11010;49.548;11.926;2023-03-23T08:42:41;13.10;99.90
21698;DHT22;11010;49.548;11.926;2023-03-23T08:45:26;13.20;99.90
21698;DHT22;11010;49.548;11.926;2023-03-23T08:48:25;13.00;99.90
21698;DHT22;11010;49.548;11.926;2023-03-23T08:51:10;12.90;99.90
21698;DHT22;11010;49.548;11.926;2023-03-23T08:54:14;12.80;99.90
21698;DHT22;11010;49.548;11.926;2023-03-23T08:57:16;12.80;99.90
21698;DHT22;11010;49.548;11.926;2023-03-23T09:00:14;12.70;99.90
21698;DHT22;11010;49.548;11.926;2023-03-23T09:03:15;12.70;99.90
21698;DHT22;11010;49.548;11.926;2023-03-23T09:06:05;12.80;99.90
21698;DHT22;11010;49.548;11.926;2023-03-23T09:08:36;12.80;99.90
21698;DHT22;11010;49.548;11.926;2023-03-23T09:11:05;12.90;99.90
21698;DHT22;11010;49.548;11.926;2023-03-23T09:13:33;12.90;99.90
21698;DHT22;11010;49.548;11.926;2023-03-23T09:15:59;12.90;99.90
21698;DHT22;11010;49.548;11.926;2023-03-23T09:18:25;12.90;99.90
21698;DHT22;11010;49.548;11.926;2023-03-23T09:20:53;12.90;99.90
21698;DHT22;11010;49.548;11.926;2023-03-23T09:23:19;12.90;99.90
21698;DHT22;11010;49.548;11.926;2023-03-23T09:25:47;13.00;99.90
21698;DHT22;11010;49.548;11.926;2023-03-23T09:28:13;13.00;99.90
21698;DHT22;11010;49.548;11.926;2023-03-23T09:30:40;13.00;99.90
21698;DHT22;11010;49.548;11.926;2023-03-23T09:33:07;12.90;99.90
21698;DHT22;11010;49.548;11.926;2023-03-23T09:35:35;12.90;99.90
21698;DHT22;11010;49.548;11.926;2023-03-23T09:38:02;13.10;99.90
21698;DHT22;11010;49.548;11.926;2023-03-23T09:48:51;13.30;99.90
21698;DHT22;11010;49.548;11.926;2023-03-23T09:54:14;13.40;99.90
21698;DHT22;11010;49.548;11.926;2023-03-23T09:56:44;13.40;99.90
21698;DHT22;11010;49.548;11.926;2023-03-23T10:01:55;13.50;99.90
21698;DHT22;11010;49.548;11.926;2023-03-23T10:07:03;13.70;99.90
21698;DHT22;11010;49.548;11.926;2023-03-23T10:09:31;13.70;99.90
21698;DHT22;11010;49.548;11.926;2023-03-23T10:12:19;13.80;99.90
21698;DHT22;11010;49.548;11.926;2023-03-23T10:22:53;13.80;99.90
21698;DHT22;11010;49.548;11.926;2023-03-23T10:25:24;14.00;99.90
21698;DHT22;11010;49.548;11.926;2023-03-23T10:28:32;13.80;99.90
21698;DHT22;11010;49.548;11.926;2023-03-23T10:31:00;13.90;99.90
21698;DHT22;11010;49.548;11.926;2023-03-23T10:33:35;14.00;99.90
21698;DHT22;11010;49.548;11.926;2023-03-23T10:38:42;14.10;99.90
21698;DHT22;11010;49.548;11.926;2023-03-23T10:41:11;14.30;99.90
21698;DHT22;11010;49.548;11.926;2023-03-23T10:43:39;14.10;99.90
21698;DHT22;11010;49.548;11.926;2023-03-23T10:48:54;14.30;99.90
21698;DHT22;11010;49.548;11.926;2023-03-23T10:51:31;14.40;99.90
21698;DHT22;11010;49.548;11.926;2023-03-23T10:54:01;14.60;99.90
21698;DHT22;11010;49.548;11.926;2023-03-23T10:56:34;14.50;99.90
21698;DHT22;11010;49.548;11.926;2023-03-23T10:59:11;14.40;99.90
21698;DHT22;11010;49.548;11.926;2023-03-23T11:01:38;14.60;99.90
21698;DHT22;11010;49.548;11.926;2023-03-23T11:04:11;14.50;99.90
21698;DHT22;11010;49.548;11.926;2023-03-23T11:06:44;14.60;99.90
21698;DHT22;11010;49.548;11.926;2023-03-23T11:09:17;14.80;99.90
21698;DHT22;11010;49.548;11.926;2023-03-23T11:11:49;14.90;99.90
21698;DHT22;11010;49.548;11.926;2023-03-23T11:14:20;14.70;99.90
21698;DHT22;11010;49.548;11.926;2023-03-23T11:16:58;14.70;99.90
21698;DHT22;11010;49.548;11.926;2023-03-23T11:19:31;14.80;99.90
21698;DHT22;11010;49.548;11.926;2023-03-23T11:22:27;14.90;99.90
21698;DHT22;11010;49.548;11.926;2023-03-23T11:24:55;14.80;99.90
21698;DHT22;11010;49.548;11.926;2023-03-23T11:27:23;14.70;99.90
21698;DHT22;11010;49.548;11.926;2023-03-23T11:32:29;14.80;99.90
21698;DHT22;11010;49.548;11.926;2023-03-23T11:35:04;14.90;99.90
21698;DHT22;11010;49.548;11.926;2023-03-23T11:37:35;14.80;99.90
21698;DHT22;11010;49.548;11.926;2023-03-23T11:42:38;14.60;99.90
21698;DHT22;11010;49.548;11.926;2023-03-23T11:48:04;14.60;99.90
21698;DHT22;11010;49.548;11.926;2023-03-23T11:50:50;14.50;99.90
21698;DHT22;11010;49.548;11.926;2023-03-23T11:54:02;14.50;99.90
21698;DHT22;11010;49.548;11.926;2023-03-23T11:58:55;14.70;99.90
21698;DHT22;11010;49.548;11.926;2023-03-23T12:09:43;14.60;99.90
21698;DHT22;11010;49.548;11.926;2023-03-23T12:15:19;14.30;99.90
21698;DHT22;11010;49.548;11.926;2023-03-23T12:21:02;14.30;99.90
21698;DHT22;11010;49.548;11.926;2023-03-23T12:23:53;14.20;99.90
21698;DHT22;11010;49.548;11.926;2023-03-23T12:29:04;14.00;99.90
21698;DHT22;11010;49.548;11.926;2023-03-23T12:31:49;13.90;99.90
21698;DHT22;11010;49.548;11.926;2023-03-23T12:37:38;13.70;99.90
21698;DHT22;11010;49.548;11.926;2023-03-23T12:46:01;13.80;99.90
21698;DHT22;11010;49.548;11.926;2023-03-23T12:48:37;14.10;99.90
21698;DHT22;11010;49.548;11.926;2023-03-23T13:02:01;14.20;99.90
21698;DHT22;11010;49.548;11.926;2023-03-23T13:04:41;14.10;99.90
21698;DHT22;11010;49.548;11.926;2023-03-23T13:07:16;14.00;99.90
21698;DHT22;11010;49.548;11.926;2023-03-23T13:10:05;14.00;99.90
21698;DHT22;11010;49.548;11.926;2023-03-23T13:12:32;14.20;99.90
21698;DHT22;11010;49.548;11.926;2023-03-23T13:20:54;14.30;99.90
21698;DHT22;11010;49.548;11.926;2023-03-23T13:26:08;14.30;99.90
21698;DHT22;11010;49.548;11.926;2023-03-23T13:29:00;14.30;99.90
21698;DHT22;11010;49.548;11.926;2023-03-23T13:31:35;14.30;99.90
21698;DHT22;11010;49.548;11.926;2023-03-23T13:34:21;14.30;99.90
21698;DHT22;11010;49.548;11.926;2023-03-23T13:37:05;14.30;99.90
21698;DHT22;11010;49.548;11.926;2023-03-23T13:39:35;14.30;99.90
21698;DHT22;11010;49.548;11.926;2023-03-23T13:42:19;14.20;99.90
21698;DHT22;11010;49.548;11.926;2023-03-23T13:55:41;14.30;99.90
21698;DHT22;11010;49.548;11.926;2023-03-23T14:05:59;14.40;99.90
21698;DHT22;11010;49.548;11.926;2023-03-23T14:11:09;14.40;99.90
21698;DHT22;11010;49.548;11.926;2023-03-23T14:16:38;14.50;99.90
21698;DHT22;11010;49.548;11.926;2023-03-23T14:19:24;14.60;99.90
21698;DHT22;11010;49.548;11.926;2023-03-23T14:21:53;14.60;99.90
21698;DHT22;11010;49.548;11.926;2023-03-23T14:24:28;14.70;99.90
21698;DHT22;11010;49.548;11.926;2023-03-23T14:27:19;14.80;99.90
21698;DHT22;11010;49.548;11.926;2023-03-23T14:29:57;15.20;99.90
21698;DHT22;11010;49.548;11.926;2023-03-23T14:32:23;15.20;99.90
21698;DHT22;11010;49.548;11.926;2023-03-23T14:34:52;15.10;99.90
21698;DHT22;11010;49.548;11.926;2023-03-23T14:37:20;15.00;99.90
21698;DHT22;11010;49.548;11.926;2023-03-23T14:39:49;14.90;99.90
21698;DHT22;11010;49.548;11.926;2023-03-23T14:42:26;14.90;99.90
21698;DHT22;11010;49.548;11.926;2023-03-23T14:44:53;14.80;99.90
21698;DHT22;11010;49.548;11.926;2023-03-23T14:53:07;14.80;99.90
21698;DHT22;11010;49.548;11.926;2023-03-23T14:55:35;14.80;99.90
21698;DHT22;11010;49.548;11.926;2023-03-23T14:58:09;14.90;99.90
21698;DHT22;11010;49.548;11.926;2023-03-23T15:00:59;14.80;99.90
21698;DHT22;11010;49.548;11.926;2023-03-23T15:03:30;14.80;99.90
21698;DHT22;11010;49.548;11.926;2023-03-23T15:06:00;14.80;99.90
21698;DHT22;11010;49.548;11.926;2023-03-23T15:08:31;14.80;99.90
21698;DHT22;11010;49.548;11.926;2023-03-23T15:11:20;14.80;99.90
21698;DHT22;11010;49.548;11.926;2023-03-23T15:13:52;14.80;99.90
21698;DHT22;11010;49.548;11.926;2023-03-23T15:16:31;14.90;99.90
21698;DHT22;11010;49.548;11.926;2023-03-23T15:18:58;14.80;99.90
21698;DHT22;11010;49.548;11.926;2023-03-23T15:21:29;14.80;99.90
21698;DHT22;11010;49.548;11.926;2023-03-23T15:23:56;14.70;99.90
21698;DHT22;11010;49.548;11.926;2023-03-23T15:26:29;14.70;99.90
21698;DHT22;11010;49.548;11.926;2023-03-23T15:31:46;14.70;99.90
21698;DHT22;11010;49.548;11.926;2023-03-23T15:34:34;14.60;99.90
21698;DHT22;11010;49.548;11.926;2023-03-23T15:37:13;14.60;99.90
21698;DHT22;11010;49.548;11.926;2023-03-23T15:39:43;14.60;99.90
21698;DHT22;11010;49.548;11.926;2023-03-23T15:42:22;14.60;99.90
21698;DHT22;11010;49.548;11.926;2023-03-23T15:44:55;14.50;99.90
21698;DHT22;11010;49.548;11.926;2023-03-23T15:47:22;14.50;99.90
21698;DHT22;11010;49.548;11.926;2023-03-23T15:50:02;14.50;99.90
21698;DHT22;11010;49.548;11.926;2023-03-23T15:52:29;14.50;99.90
21698;DHT22;11010;49.548;11.926;2023-03-23T15:54:55;14.60;99.90
21698;DHT22;11010;49.548;11.926;2023-03-23T15:57:20;14.50;99.90
21698;DHT22;11010;49.548;11.926;2023-03-23T15:59:46;14.50;99.90
21698;DHT22;11010;49.548;11.926;2023-03-23T16:02:21;14.50;99.90
21698;DHT22;11010;49.548;11.926;2023-03-23T16:04:50;14.50;99.90
21698;DHT22;11010;49.548;11.926;2023-03-23T16:07:22;14.40;99.90
21698;DHT22;11010;49.548;11.926;2023-03-23T16:09:49;14.40;99.90
21698;DHT22;11010;49.548;11.926;2023-03-23T16:12:16;14.40;99.90
21698;DHT22;11010;49.548;11.926;2023-03-23T16:14:44;14.40;99.90
21698;DHT22;11010;49.548;11.926;2023-03-23T16:17:18;14.40;99.90
21698;DHT22;11010;49.548;11.926;2023-03-23T16:19:47;14.40;99.90
21698;DHT22;11010;49.548;11.926;2023-03-23T16:22:14;14.40;99.90
21698;DHT22;11010;49.548;11.926;2023-03-23T16:24:44;14.30;99.90
21698;DHT22;11010;49.548;11.926;2023-03-23T16:27:12;14.30;99.90
21698;DHT22;11010;49.548;11.926;2023-03-23T16:29:39;14.30;99.90
21698;DHT22;11010;49.548;11.926;2023-03-23T16:32:26;14.30;99.90
21698;DHT22;11010;49.548;11.926;2023-03-23T16:34:53;14.30;99.90
21698;DHT22;11010;49.548;11.926;2023-03-23T16:37:21;14.30;99.90
21698;DHT22;11010;49.548;11.926;2023-03-23T16:39:47;14.20;99.90
21698;DHT22;11010;49.548;11.926;2023-03-23T16:42:14;14.20;99.90
21698;DHT22;11010;49.548;11.926;2023-03-23T16:44:41;14.20;99.90
21698;DHT22;11010;49.548;11.926;2023-03-23T16:47:08;14.20;99.90
21698;DHT22;11010;49.548;11.926;2023-03-23T16:49:35;14.20;99.90
21698;DHT22;11010;49.548;11.926;2023-03-23T16:52:02;14.10;99.90
21698;DHT22;11010;49.548;11.926;2023-03-23T16:54:29;14.10;99.90
21698;DHT22;11010;49.548;11.926;2023-03-23T16:56:57;14.10;99.90
21698;DHT22;11010;49.548;11.926;2023-03-23T16:59:27;14.00;99.90
21698;DHT22;11010;49.548;11.926;2023-03-23T17:01:54;14.10;99.90
21698;DHT22;11010;49.548;11.926;2023-03-23T17:04:21;14.00;99.90
21698;DHT22;11010;49.548;11.926;2023-03-23T17:06:48;14.00;99.90
21698;DHT22;11010;49.548;11.926;2023-03-23T17:09:17;14.00;99.90
21698;DHT22;11010;49.548;11.926;2023-03-23T17:11:44;14.00;99.90
21698;DHT22;11010;49.548;11.926;2023-03-23T17:14:11;13.90;99.90
21698;DHT22;11010;49.548;11.926;2023-03-23T17:16:38;13.90;99.90
21698;DHT22;11010;49.548;11.926;2023-03-23T17:19:06;13.90;99.90
21698;DHT22;11010;49.548;11.926;2023-03-23T17:21:33;13.80;99.90
21698;DHT22;11010;49.548;11.926;2023-03-23T17:24:01;13.80;99.90
21698;DHT22;11010;49.548;11.926;2023-03-23T17:26:28;13.80;99.90
21698;DHT22;11010;49.548;11.926;2023-03-23T17:28:55;13.80;99.90
21698;DHT22;11010;49.548;11.926;2023-03-23T17:31:22;13.80;99.90
21698;DHT22;11010;49.548;11.926;2023-03-23T17:33:49;13.80;99.90
21698;DHT22;11010;49.548;11.926;2023-03-23T17:36:18;13.70;99.90
21698;DHT22;11010;49.548;11.926;2023-03-23T17:38:45;13.70;99.90
21698;DHT22;11010;49.548;11.926;2023-03-23T17:41:12;13.70;99.90
21698;DHT22;11010;49.548;11.926;2023-03-23T17:43:39;13.60;99.90
21698;DHT22;11010;49.548;11.926;2023-03-23T17:46:08;13.50;99.90
21698;DHT22;11010;49.548;11.926;2023-03-23T17:48:35;13.60;99.90
21698;DHT22;11010;49.548;11.926;2023-03-23T17:51:03;13.60;99.90
21698;DHT22;11010;49.548;11.926;2023-03-23T17:53:33;13.60;99.90
21698;DHT22;11010;49.548;11.926;2023-03-23T17:56:03;13.50;99.90
21698;DHT22;11010;49.548;11.926;2023-03-23T17:58:30;13.50;99.90
21698;DHT22;11010;49.548;11.926;2023-03-23T18:00:57;13.40;99.90
21698;DHT22;11010;49.548;11.926;2023-03-23T18:03:24;13.40;99.90
21698;DHT22;11010;49.548;11.926;2023-03-23T18:06:01;13.40;99.90
21698;DHT22;11010;49.548;11.926;2023-03-23T18:08:30;13.40;99.90
21698;DHT22;11010;49.548;11.926;2023-03-23T18:10:58;13.40;99.90
21698;DHT22;11010;49.548;11.926;2023-03-23T18:13:26;13.40;99.90
21698;DHT22;11010;49.548;11.926;2023-03-23T18:15:54;13.40;99.90
21698;DHT22;11010;49.548;11.926;2023-03-23T18:18:23;13.40;99.90
21698;DHT22;11010;49.548;11.926;2023-03-23T18:20:58;13.40;99.90
21698;DHT22;11010;49.548;11.926;2023-03-23T18:23:27;13.40;99.90
21698;DHT22;11010;49.548;11.926;2023-03-23T18:25:54;13.40;99.90